createdAt,value
2023-07-05T00:00:36.800Z,10.07
2023-07-05T00:03:03.900Z,10.05
2023-07-05T00:05:30.636Z,11.13
2023-07-05T00:07:57.764Z,10.23
2023-07-05T00:10:24.479Z,12.35
2023-07-05T00:12:51.104Z,10.85
2023-07-05T00:15:17.977Z,12.45
2023-07-05T00:17:44.626Z,10.93
2023-07-05T00:20:12.107Z,12.52
2023-07-05T00:22:39.012Z,10.77
2023-07-05T00:25:06.181Z,9.30
2023-07-05T00:27:32.874Z,10.30
2023-07-05T00:29:59.474Z,13.25
2023-07-05T00:32:26.136Z,11.10
2023-07-05T00:34:52.759Z,11.63
2023-07-05T00:37:19.452Z,10.48
2023-07-05T00:39:46.152Z,12.52
2023-07-05T00:42:12.758Z,9.85
2023-07-05T00:44:39.570Z,13.02
2023-07-05T00:47:15.228Z,9.75
2023-07-05T00:49:41.896Z,10.75
2023-07-05T00:52:14.601Z,10.48
2023-07-05T00:54:48.022Z,9.68
2023-07-05T00:57:18.683Z,9.95
2023-07-05T00:59:55.416Z,11.57
2023-07-05T01:02:23.436Z,10.80
2023-07-05T01:04:50.572Z,9.40
2023-07-05T01:07:17.318Z,12.25
2023-07-05T01:09:47.308Z,12.35
2023-07-05T01:12:19.947Z,9.85
2023-07-05T01:15:00.089Z,10.60
2023-07-05T01:17:26.770Z,13.63
2023-07-05T01:20:32.876Z,9.75
2023-07-05T01:23:14.426Z,13.38
2023-07-05T01:25:43.612Z,9.70
2023-07-05T01:28:44.378Z,11.90
2023-07-05T01:31:20.042Z,11.07
2023-07-05T01:34:04.525Z,8.73
2023-07-05T01:36:32.003Z,9.10
2023-07-05T01:38:58.654Z,10.35
2023-07-05T01:41:25.630Z,7.90
2023-07-05T01:43:53.570Z,11.65
2023-07-05T01:46:20.205Z,10.02
2023-07-05T01:49:14.526Z,8.82
2023-07-05T01:52:06.611Z,9.38
2023-07-05T01:54:51.649Z,10.40
2023-07-05T01:57:24.601Z,8.90
2023-07-05T02:00:02.158Z,10.38
2023-07-05T02:02:34.918Z,7.75
2023-07-05T02:05:03.637Z,9.40
2023-07-05T02:07:31.975Z,11.27
2023-07-05T02:09:58.768Z,8.52
2023-07-05T02:12:26.585Z,10.75
2023-07-05T02:14:53.399Z,8.85
2023-07-05T02:17:21.212Z,10.07
2023-07-05T02:19:48.032Z,9.25
2023-07-05T02:22:14.941Z,8.25
2023-07-05T02:24:41.923Z,10.68
2023-07-05T02:27:08.597Z,9.50
2023-07-05T02:29:35.220Z,10.15
2023-07-05T02:32:02.016Z,12.77
2023-07-05T02:34:29.827Z,8.65
2023-07-05T02:36:56.439Z,8.38
2023-07-05T02:39:23.002Z,9.93
2023-07-05T02:41:49.604Z,9.68
2023-07-05T02:44:16.296Z,12.35
2023-07-05T02:46:42.972Z,10.07
2023-07-05T02:49:09.590Z,7.80
2023-07-05T02:51:36.256Z,9.80
2023-07-05T02:54:02.890Z,11.77
2023-07-05T02:56:29.563Z,9.00
2023-07-05T02:58:56.147Z,8.07
2023-07-05T03:01:23.060Z,8.95
2023-07-05T03:03:49.776Z,8.82
2023-07-05T03:06:17.005Z,9.68
2023-07-05T03:08:43.619Z,10.27
2023-07-05T03:11:10.269Z,8.30
2023-07-05T03:13:37.381Z,7.85
2023-07-05T03:16:04.859Z,8.82
2023-07-05T03:18:31.832Z,8.43
2023-07-05T03:20:58.491Z,8.52
2023-07-05T03:23:25.153Z,8.85
2023-07-05T03:26:08.906Z,9.20
2023-07-05T03:28:37.080Z,8.02
2023-07-05T03:31:06.535Z,9.93
2023-07-05T03:33:34.509Z,9.57
2023-07-05T03:36:08.329Z,9.38
2023-07-05T03:38:35.370Z,8.95
2023-07-05T03:41:05.686Z,7.72
2023-07-05T03:43:36.523Z,9.82
2023-07-05T03:46:05.291Z,8.25
2023-07-05T03:48:38.823Z,7.65
2023-07-05T03:51:06.763Z,9.07
2023-07-05T03:53:34.623Z,8.48
2023-07-05T03:56:03.056Z,8.85
2023-07-05T03:58:30.552Z,10.40
2023-07-05T04:01:24.481Z,9.50
2023-07-05T04:03:55.332Z,8.55
2023-07-05T04:06:23.912Z,9.50
2023-07-05T04:08:50.988Z,9.50
2023-07-05T04:11:18.346Z,7.35
2023-07-05T04:13:46.146Z,8.25
2023-07-05T04:16:15.926Z,8.88
2023-07-05T04:18:44.436Z,8.18
2023-07-05T04:21:11.764Z,10.63
2023-07-05T04:23:40.437Z,7.50
2023-07-05T04:26:11.248Z,8.18
2023-07-05T04:28:39.552Z,9.45
2023-07-05T04:31:10.222Z,7.97
2023-07-05T04:33:37.209Z,7.78
2023-07-05T04:36:05.069Z,8.35
2023-07-05T04:38:32.712Z,11.65
2023-07-05T04:40:59.637Z,10.30
2023-07-05T04:43:30.124Z,7.00
2023-07-05T04:45:58.762Z,9.10
2023-07-05T04:48:28.336Z,7.97
2023-07-05T04:50:56.512Z,9.25
2023-07-05T04:53:24.284Z,7.10
2023-07-05T04:55:53.519Z,7.93
2023-07-05T04:58:21.635Z,7.95
2023-07-05T05:00:50.363Z,10.40
2023-07-05T05:03:19.005Z,9.65
2023-07-05T05:05:49.244Z,7.07
2023-07-05T05:08:16.009Z,7.72
2023-07-05T05:10:43.242Z,8.70
2023-07-05T05:13:09.990Z,9.63
2023-07-05T05:15:41.040Z,8.18
2023-07-05T05:18:09.230Z,7.80
2023-07-05T05:20:39.254Z,6.97
2023-07-05T05:23:06.899Z,8.48
2023-07-05T05:25:34.283Z,9.93
2023-07-05T05:28:01.925Z,8.65
2023-07-05T05:30:32.359Z,7.22
2023-07-05T05:32:59.471Z,7.80
2023-07-05T05:35:26.260Z,8.07
2023-07-05T05:37:52.899Z,8.40
2023-07-05T05:40:20.569Z,8.60
2023-07-05T05:42:47.293Z,7.53
2023-07-05T05:45:14.002Z,7.57
2023-07-05T05:47:40.986Z,8.35
2023-07-05T05:50:08.254Z,9.30
2023-07-05T05:52:35.543Z,8.18
2023-07-05T05:55:03.712Z,10.65
2023-07-05T05:57:30.735Z,9.75
2023-07-05T05:59:57.438Z,7.82
2023-07-05T06:02:24.191Z,7.55
2023-07-05T06:04:51.421Z,8.60
2023-07-05T06:07:18.260Z,8.35
2023-07-05T06:09:47.715Z,7.65
2023-07-05T06:12:14.859Z,8.50
2023-07-05T06:14:41.803Z,8.35
2023-07-05T06:17:08.597Z,9.45
2023-07-05T06:19:35.363Z,7.70
2023-07-05T06:22:02.072Z,9.85
2023-07-05T06:24:28.676Z,9.63
2023-07-05T06:26:55.351Z,8.48
2023-07-05T06:29:22.043Z,7.90
2023-07-05T06:31:48.632Z,7.75
2023-07-05T06:34:15.334Z,11.13
2023-07-05T06:36:42.155Z,8.80
2023-07-05T06:39:08.852Z,10.77
2023-07-05T06:41:35.573Z,9.63
2023-07-05T06:44:02.725Z,8.30
2023-07-05T06:46:29.563Z,9.45
2023-07-05T06:48:56.248Z,9.80
2023-07-05T06:51:23.212Z,8.73
2023-07-05T06:53:50.030Z,9.43
2023-07-05T06:56:17.430Z,10.35
2023-07-05T06:58:44.645Z,10.20
2023-07-05T07:01:12.864Z,8.63
2023-07-05T07:03:40.143Z,8.88
2023-07-05T07:06:06.880Z,9.60
2023-07-05T07:08:35.312Z,10.38
2023-07-05T07:11:07.131Z,9.95
2023-07-05T07:13:37.438Z,9.60
2023-07-05T07:16:10.397Z,10.45
2023-07-05T07:18:38.635Z,9.73
2023-07-05T07:21:10.294Z,9.18
2023-07-05T07:23:37.655Z,9.55
2023-07-05T07:26:12.997Z,9.82
2023-07-05T07:28:40.170Z,10.90
2023-07-05T07:31:21.933Z,11.02
2023-07-05T07:33:49.579Z,9.10
2023-07-05T07:36:18.802Z,11.68
2023-07-05T07:38:46.047Z,10.50
2023-07-05T07:41:21.414Z,10.05
2023-07-05T07:43:51.529Z,11.02
2023-07-05T07:46:21.225Z,11.20
2023-07-05T07:48:50.096Z,11.23
2023-07-05T07:51:35.925Z,11.82
2023-07-05T07:54:05.400Z,11.40
2023-07-05T07:56:32.311Z,11.68
2023-07-05T07:59:02.305Z,11.75
2023-07-05T08:01:35.209Z,12.70
2023-07-05T08:04:06.152Z,12.43
2023-07-05T08:06:42.437Z,11.30
2023-07-05T08:09:12.794Z,13.15
2023-07-05T08:11:40.319Z,13.60
2023-07-05T08:14:08.377Z,11.07
2023-07-05T08:16:35.286Z,14.82
2023-07-05T08:19:02.043Z,11.55
2023-07-05T08:21:29.015Z,13.95
2023-07-05T08:23:55.771Z,14.05
2023-07-05T08:26:22.496Z,12.82
2023-07-05T08:28:49.224Z,13.32
2023-07-05T08:31:16.233Z,13.88
2023-07-05T08:33:44.644Z,13.73
2023-07-05T08:36:36.945Z,14.77
2023-07-05T08:39:06.468Z,14.57
2023-07-05T08:41:45.310Z,13.88
2023-07-05T08:44:36.746Z,13.40
2023-07-05T08:47:29.544Z,15.13
2023-07-05T08:50:17.490Z,13.70
2023-07-05T08:52:49.610Z,14.52
2023-07-05T08:55:22.344Z,12.48
2023-07-05T08:57:57.002Z,13.95
2023-07-05T09:00:53.536Z,13.57
2023-07-05T09:03:23.573Z,15.23
2023-07-05T09:05:59.710Z,14.43
2023-07-05T09:08:57.087Z,14.05
2023-07-05T09:11:37.893Z,13.15
2023-07-05T09:14:24.696Z,13.07
2023-07-05T09:16:54.380Z,14.95
2023-07-05T09:19:34.755Z,12.98
2023-07-05T09:22:05.851Z,12.10
2023-07-05T09:24:37.262Z,13.70
2023-07-05T09:27:10.209Z,13.27
2023-07-05T09:30:00.006Z,12.05
2023-07-05T09:32:39.528Z,12.68
2023-07-05T09:35:17.057Z,11.52
2023-07-05T09:38:02.249Z,11.80
2023-07-05T09:40:34.312Z,13.73
2023-07-05T09:43:07.283Z,10.77
2023-07-05T09:45:34.376Z,12.32
2023-07-05T09:48:06.920Z,12.68
2023-07-05T09:50:33.938Z,11.70
2023-07-05T09:53:32.604Z,11.93
2023-07-05T09:56:02.759Z,10.73
2023-07-05T09:58:29.389Z,10.70
2023-07-05T10:00:56.416Z,9.00
2023-07-05T10:03:23.524Z,10.77
2023-07-05T10:05:55.205Z,12.32
2023-07-05T10:08:23.408Z,10.13
2023-07-05T10:10:50.918Z,10.95
2023-07-05T10:13:25.934Z,11.57
2023-07-05T10:15:59.347Z,10.93
2023-07-05T10:18:34.949Z,10.93
2023-07-05T10:21:05.093Z,10.95
2023-07-05T10:23:34.886Z,11.73
2023-07-05T10:26:04.617Z,11.43
2023-07-05T10:28:34.113Z,10.15
2023-07-05T10:31:05.161Z,11.02
2023-07-05T10:33:36.378Z,10.38
2023-07-05T10:36:10.352Z,10.73
2023-07-05T10:38:47.125Z,9.40
2023-07-05T10:41:33.747Z,10.15
2023-07-05T10:44:03.933Z,10.27
2023-07-05T10:46:31.825Z,11.25
2023-07-05T10:48:59.313Z,9.55
2023-07-05T10:51:32.262Z,11.93
2023-07-05T10:54:06.400Z,10.93
2023-07-05T10:56:36.579Z,10.55
2023-07-05T10:59:21.847Z,10.07
2023-07-05T11:01:56.444Z,10.15
2023-07-05T11:04:29.487Z,10.40
2023-07-05T11:07:08.291Z,9.35
2023-07-05T11:09:37.657Z,12.13
2023-07-05T11:12:12.156Z,12.00
2023-07-05T11:14:38.941Z,10.00
2023-07-05T11:17:12.297Z,8.77
2023-07-05T11:19:40.661Z,8.40
2023-07-05T11:22:07.600Z,8.05
2023-07-05T11:24:40.192Z,8.85
2023-07-05T11:27:35.836Z,9.27
2023-07-05T11:30:02.453Z,9.15
2023-07-05T11:33:18.451Z,9.95
2023-07-05T11:35:50.993Z,8.77
2023-07-05T11:38:36.298Z,8.98
2023-07-05T11:41:07.868Z,7.10
2023-07-05T11:43:43.245Z,7.03
2023-07-05T11:46:38.133Z,8.30
2023-07-05T11:49:19.517Z,7.28
2023-07-05T11:51:46.505Z,7.03
2023-07-05T11:54:14.794Z,8.02
2023-07-05T11:56:43.387Z,5.35
2023-07-05T11:59:13.058Z,6.90
2023-07-05T12:01:41.257Z,5.70
2023-07-05T12:04:18.609Z,7.15
2023-07-05T12:06:46.692Z,7.57
2023-07-05T12:09:17.908Z,6.63
2023-07-05T12:11:44.928Z,6.40
2023-07-05T12:14:20.631Z,6.35
2023-07-05T12:16:47.903Z,6.93
2023-07-05T12:19:31.461Z,6.00
2023-07-05T12:22:03.977Z,6.75
2023-07-05T12:25:00.058Z,5.93
2023-07-05T12:27:30.162Z,7.70
2023-07-05T12:29:59.069Z,5.95
2023-07-05T12:32:28.262Z,5.68
2023-07-05T12:35:06.705Z,6.60
2023-07-05T12:37:34.170Z,5.95
2023-07-05T12:40:18.512Z,6.25
2023-07-05T12:42:57.433Z,6.88
2023-07-05T12:45:25.883Z,6.10
2023-07-05T12:47:52.652Z,6.03
2023-07-05T12:50:24.710Z,6.57
2023-07-05T12:53:03.325Z,6.25
2023-07-05T12:55:33.877Z,6.40
2023-07-05T12:58:02.642Z,6.13
2023-07-05T13:00:29.381Z,5.95
2023-07-05T13:03:00.420Z,5.65
2023-07-05T13:05:28.726Z,7.13
2023-07-05T13:07:56.394Z,5.45
2023-07-05T13:10:23.149Z,5.82
2023-07-05T13:12:54.909Z,5.85
2023-07-05T13:15:32.711Z,7.10
2023-07-05T13:18:21.193Z,6.63
2023-07-05T13:20:48.486Z,7.95
2023-07-05T13:23:15.152Z,5.65
2023-07-05T13:25:48.697Z,6.85
2023-07-05T13:28:23.429Z,5.03
2023-07-05T13:30:58.490Z,5.65
2023-07-05T13:33:26.213Z,6.93
2023-07-05T13:35:53.612Z,6.15
2023-07-05T13:38:21.679Z,7.05
2023-07-05T13:40:59.386Z,6.25
2023-07-05T13:43:26.567Z,6.13
2023-07-05T13:45:53.273Z,7.53
2023-07-05T13:48:21.279Z,6.57
2023-07-05T13:50:48.217Z,7.45
2023-07-05T13:53:20.447Z,6.35
2023-07-05T13:55:47.558Z,6.72
2023-07-05T13:58:15.864Z,5.95
2023-07-05T14:00:45.307Z,7.22
2023-07-05T14:03:12.604Z,6.03
2023-07-05T14:05:40.289Z,6.78
2023-07-05T14:08:13.298Z,5.95
2023-07-05T14:10:42.148Z,6.93
2023-07-05T14:13:14.681Z,6.10
2023-07-05T14:15:43.256Z,6.35
2023-07-05T14:18:16.243Z,6.30
2023-07-05T14:20:42.994Z,6.05
2023-07-05T14:23:13.629Z,6.78
2023-07-05T14:25:50.507Z,6.30
2023-07-05T14:28:17.809Z,7.50
2023-07-05T14:30:46.592Z,5.72
2023-07-05T14:33:17.761Z,6.65
2023-07-05T14:35:44.451Z,6.18
2023-07-05T14:38:11.153Z,9.35
2023-07-05T14:40:38.866Z,5.28
2023-07-05T14:43:08.583Z,6.97
2023-07-05T14:45:37.214Z,8.18
2023-07-05T14:48:04.404Z,5.43
2023-07-05T14:50:33.072Z,6.53
2023-07-05T14:53:03.178Z,5.63
2023-07-05T14:55:31.191Z,5.47
2023-07-05T14:57:58.391Z,6.10
2023-07-05T15:00:27.858Z,7.05
2023-07-05T15:03:03.113Z,6.93
2023-07-05T15:05:30.000Z,5.47
2023-07-05T15:07:56.582Z,5.22
2023-07-05T15:10:24.325Z,4.03
2023-07-05T15:12:51.006Z,4.75
2023-07-05T15:15:26.695Z,5.70
2023-07-05T15:17:56.138Z,5.50
2023-07-05T15:20:23.678Z,6.00
2023-07-05T15:22:50.649Z,4.18
2023-07-05T15:25:19.201Z,4.85
2023-07-05T15:27:48.194Z,4.07
2023-07-05T15:30:15.695Z,4.90
2023-07-05T15:32:44.784Z,5.50
2023-07-05T15:35:14.663Z,5.32
2023-07-05T15:37:41.555Z,4.65
2023-07-05T15:40:09.282Z,5.40
2023-07-05T15:42:52.927Z,6.82
2023-07-05T15:45:25.229Z,4.70
2023-07-05T15:47:56.308Z,4.72
2023-07-05T15:50:24.622Z,6.32
2023-07-05T15:52:51.956Z,5.85
2023-07-05T15:55:19.353Z,4.03
2023-07-05T15:57:46.556Z,5.18
2023-07-05T16:00:37.240Z,5.00
2023-07-05T16:03:07.047Z,4.18
2023-07-05T16:05:37.840Z,4.15
2023-07-05T16:08:06.643Z,4.90
2023-07-05T16:10:35.890Z,4.50
2023-07-05T16:13:02.994Z,4.50
2023-07-05T16:15:33.181Z,3.97
2023-07-05T16:18:00.368Z,5.00
2023-07-05T16:20:28.523Z,2.92
2023-07-05T16:22:56.034Z,4.15
2023-07-05T16:25:43.693Z,3.67
2023-07-05T16:28:11.872Z,4.63
2023-07-05T16:30:38.538Z,5.80
2023-07-05T16:33:05.316Z,3.67
2023-07-05T16:35:32.377Z,5.00
2023-07-05T16:37:59.119Z,3.42
2023-07-05T16:40:25.697Z,3.90
2023-07-05T16:42:53.921Z,4.82
2023-07-05T16:45:21.068Z,5.20
2023-07-05T16:47:47.803Z,3.13
2023-07-05T16:50:17.883Z,5.47
2023-07-05T16:52:46.281Z,4.25
2023-07-05T16:55:12.984Z,4.90
2023-07-05T16:57:39.589Z,3.60
2023-07-05T17:00:06.949Z,4.40
2023-07-05T17:02:34.958Z,5.38
2023-07-05T17:05:01.787Z,4.32
2023-07-05T17:07:28.832Z,5.28
2023-07-05T17:09:55.794Z,5.40
2023-07-05T17:12:22.618Z,5.03
2023-07-05T17:14:49.921Z,4.78
2023-07-05T17:17:17.871Z,5.28
2023-07-05T17:19:44.783Z,4.28
2023-07-05T17:22:11.432Z,4.18
2023-07-05T17:24:38.249Z,2.83
2023-07-05T17:27:05.256Z,5.60
2023-07-05T17:29:32.259Z,4.50
2023-07-05T17:31:59.127Z,4.32
2023-07-05T17:34:29.983Z,5.47
2023-07-05T17:36:57.458Z,5.30
2023-07-05T17:39:25.461Z,4.43
2023-07-05T17:41:53.822Z,4.70
2023-07-05T17:44:20.553Z,5.13
2023-07-05T17:46:47.139Z,5.18
2023-07-05T17:49:13.793Z,4.25
2023-07-05T17:51:40.737Z,4.97
2023-07-05T17:54:08.798Z,6.03
2023-07-05T17:56:35.778Z,4.88
2023-07-05T17:59:02.598Z,6.82
2023-07-05T18:01:31.118Z,5.90
2023-07-05T18:03:58.659Z,6.57
2023-07-05T18:06:25.845Z,6.15
2023-07-05T18:08:52.792Z,5.70
2023-07-05T18:11:22.602Z,5.70
2023-07-05T18:13:50.511Z,6.40
2023-07-05T18:16:42.814Z,8.10
2023-07-05T18:19:09.781Z,5.95
2023-07-05T18:21:39.818Z,4.38
2023-07-05T18:24:10.088Z,5.20
2023-07-05T18:26:40.021Z,5.78
2023-07-05T18:29:07.173Z,5.15
2023-07-05T18:31:35.024Z,5.70
2023-07-05T18:34:01.735Z,5.90
2023-07-05T18:36:28.408Z,6.03
2023-07-05T18:38:55.027Z,5.47
2023-07-05T18:41:22.693Z,6.75
2023-07-05T18:43:49.718Z,7.72
2023-07-05T18:46:17.136Z,5.30
2023-07-05T18:48:44.046Z,6.55
2023-07-05T18:51:12.411Z,5.10
2023-07-05T18:53:39.231Z,5.22
2023-07-05T18:56:09.766Z,4.10
2023-07-05T18:58:36.442Z,5.85
2023-07-05T19:01:06.474Z,5.20
2023-07-05T19:03:33.628Z,6.10
2023-07-05T19:06:05.170Z,8.07
2023-07-05T19:08:36.531Z,6.00
2023-07-05T19:11:09.513Z,6.20
2023-07-05T19:13:36.652Z,7.75
2023-07-05T19:16:04.019Z,5.13
2023-07-05T19:18:31.157Z,6.05
2023-07-05T19:21:00.600Z,7.72
2023-07-05T19:23:32.486Z,4.97
2023-07-05T19:26:01.926Z,5.70
2023-07-05T19:28:30.293Z,6.85
2023-07-05T19:31:12.219Z,5.38
2023-07-05T19:33:43.223Z,5.40
2023-07-05T19:36:13.740Z,5.05
2023-07-05T19:38:40.391Z,5.07
2023-07-05T19:41:07.205Z,5.70
2023-07-05T19:43:34.284Z,6.43
2023-07-05T19:46:05.633Z,4.55
2023-07-05T19:48:32.844Z,5.63
2023-07-05T19:51:05.123Z,4.93
2023-07-05T19:53:31.785Z,5.82
2023-07-05T19:55:58.696Z,6.53
2023-07-05T19:58:25.775Z,6.72
2023-07-05T20:00:54.414Z,8.23
2023-07-05T20:03:21.277Z,5.28
2023-07-05T20:05:51.890Z,5.97
2023-07-05T20:08:20.886Z,5.63
2023-07-05T20:10:47.548Z,4.80
2023-07-05T20:13:15.759Z,6.40
2023-07-05T20:15:43.812Z,6.43
2023-07-05T20:18:13.049Z,5.65
2023-07-05T20:20:40.480Z,6.20
2023-07-05T20:23:07.266Z,5.38
2023-07-05T20:25:33.925Z,6.47
2023-07-05T20:28:00.712Z,5.70
2023-07-05T20:30:27.389Z,6.20
2023-07-05T20:32:54.055Z,5.93
2023-07-05T20:35:20.735Z,6.15
2023-07-05T20:37:59.203Z,6.07
2023-07-05T20:40:30.465Z,6.05
2023-07-05T20:42:57.678Z,5.47
2023-07-05T20:45:25.783Z,5.72
2023-07-05T20:47:52.514Z,7.80
2023-07-05T20:50:19.428Z,6.57
2023-07-05T20:52:46.223Z,5.95
2023-07-05T20:55:13.076Z,6.10
2023-07-05T20:57:41.301Z,6.47
2023-07-05T21:00:09.659Z,6.30
2023-07-05T21:02:37.017Z,5.68
2023-07-05T21:05:04.840Z,5.32
2023-07-05T21:07:31.876Z,5.07
2023-07-05T21:09:58.555Z,6.55
2023-07-05T21:12:26.602Z,6.20
2023-07-05T21:14:53.284Z,7.30
2023-07-05T21:17:19.953Z,6.55
2023-07-05T21:19:46.604Z,5.72
2023-07-05T21:22:13.496Z,6.10
2023-07-05T21:24:40.357Z,8.02
2023-07-05T21:27:07.026Z,6.40
2023-07-05T21:29:33.723Z,5.78
2023-07-05T21:32:00.512Z,6.38
2023-07-05T21:34:27.635Z,5.55
2023-07-05T21:36:54.184Z,6.43
2023-07-05T21:39:21.094Z,5.82
2023-07-05T21:41:49.504Z,6.60
2023-07-05T21:44:16.775Z,6.55
2023-07-05T21:46:46.539Z,6.32
2023-07-05T21:49:13.234Z,6.70
2023-07-05T21:51:45.382Z,6.53
2023-07-05T21:54:12.583Z,7.93
2023-07-05T21:56:42.827Z,6.78
2023-07-05T21:59:10.921Z,4.95
2023-07-05T22:01:38.867Z,6.80
2023-07-05T22:04:07.085Z,5.57
2023-07-05T22:06:34.010Z,6.63
2023-07-05T22:09:01.648Z,5.85
2023-07-05T22:11:28.794Z,8.18
2023-07-05T22:13:58.282Z,6.93
2023-07-05T22:16:27.756Z,6.05
2023-07-05T22:18:56.248Z,6.68
2023-07-05T22:21:24.690Z,6.10
2023-07-05T22:23:52.290Z,6.82
2023-07-05T22:26:19.306Z,8.35
2023-07-05T22:28:46.003Z,6.63
2023-07-05T22:31:13.381Z,6.72
2023-07-05T22:33:39.991Z,5.95
2023-07-05T22:36:07.222Z,8.25
2023-07-05T22:38:34.310Z,6.95
2023-07-05T22:41:01.219Z,6.18
2023-07-05T22:43:29.221Z,6.43
2023-07-05T22:46:01.473Z,8.25
2023-07-05T22:48:33.514Z,7.68
2023-07-05T22:51:01.196Z,5.63
2023-07-05T22:53:28.407Z,6.10
2023-07-05T22:55:55.882Z,6.90
2023-07-05T22:58:26.084Z,7.38
2023-07-05T23:00:57.946Z,7.28
2023-07-05T23:03:25.926Z,7.65
2023-07-05T23:05:54.280Z,7.57
2023-07-05T23:08:21.164Z,6.72
2023-07-05T23:10:47.783Z,7.32
2023-07-05T23:13:14.458Z,7.63
2023-07-05T23:15:45.194Z,7.78
2023-07-05T23:18:11.882Z,5.63
2023-07-05T23:20:39.746Z,6.45
2023-07-05T23:23:08.741Z,8.10
2023-07-05T23:25:35.618Z,6.28
2023-07-05T23:28:04.308Z,7.68
2023-07-05T23:30:30.948Z,10.43
2023-07-05T23:32:57.580Z,8.63
2023-07-05T23:35:25.653Z,7.93
2023-07-05T23:37:52.645Z,8.05
2023-07-05T23:40:19.349Z,7.93
2023-07-05T23:42:46.438Z,9.52
2023-07-05T23:45:13.161Z,8.80
2023-07-05T23:47:40.974Z,12.00
2023-07-05T23:50:09.176Z,6.88
2023-07-05T23:52:35.945Z,8.05
2023-07-05T23:55:04.455Z,8.82
2023-07-05T23:57:31.556Z,11.73
2023-07-05T23:59:58.296Z,8.18
